createdAt,value
2022-10-28T00:02:00.588Z,62.65
2022-10-28T00:07:03.122Z,52.17
2022-10-28T00:12:05.903Z,62.97
2022-10-28T00:17:08.214Z,50.78
2022-10-28T00:22:10.508Z,49.75
2022-10-28T00:27:12.752Z,48.22
2022-10-28T00:32:15.067Z,48.22
2022-10-28T00:37:17.420Z,46.72
2022-10-28T00:42:22.475Z,44.13
2022-10-28T00:47:33.835Z,40.67
2022-10-28T00:52:36.340Z,51.30
2022-10-28T00:57:39.601Z,50.88
2022-10-28T01:02:46.422Z,49.40
2022-10-28T01:07:51.434Z,45.28
2022-10-28T01:13:19.660Z,78.70
2022-10-28T01:18:44.005Z,47.30
2022-10-28T01:24:08.947Z,42.17
2022-10-28T01:29:42.025Z,53.40
2022-10-28T01:35:15.005Z,38.65
2022-10-28T01:40:23.977Z,46.90
2022-10-28T01:45:31.698Z,49.00
2022-10-28T01:50:59.066Z,46.63
2022-10-28T01:56:07.003Z,48.47
2022-10-28T02:01:10.494Z,47.53
2022-10-28T02:06:21.659Z,69.35
2022-10-28T02:11:51.910Z,39.25
2022-10-28T02:17:16.242Z,59.55
2022-10-28T02:22:22.257Z,60.95
2022-10-28T02:27:33.835Z,66.32
2022-10-28T02:32:42.063Z,46.67
2022-10-28T02:37:46.768Z,53.00
2022-10-28T02:42:55.957Z,54.67
2022-10-28T02:48:02.863Z,69.53
2022-10-28T02:53:13.746Z,51.50
2022-10-28T02:58:16.102Z,45.08
2022-10-28T03:03:18.490Z,50.38
2022-10-28T03:08:20.922Z,53.97
2022-10-28T03:13:23.528Z,62.08
2022-10-28T03:18:26.025Z,83.72
2022-10-28T03:23:28.475Z,50.28
2022-10-28T03:28:30.804Z,61.95
2022-10-28T03:33:33.153Z,50.33
2022-10-28T03:38:35.458Z,48.17
2022-10-28T03:43:38.067Z,46.22
2022-10-28T03:48:40.429Z,51.55
2022-10-28T03:53:42.991Z,80.43
2022-10-28T03:58:48.726Z,47.47
2022-10-28T04:03:51.102Z,59.00
2022-10-28T04:08:53.416Z,50.20
2022-10-28T04:13:55.840Z,86.38
2022-10-28T04:18:58.291Z,82.22
2022-10-28T04:24:00.697Z,61.83
2022-10-28T04:29:02.956Z,72.65
2022-10-28T04:34:05.230Z,52.70
2022-10-28T04:39:07.522Z,65.30
2022-10-28T04:44:09.802Z,59.30
2022-10-28T04:49:12.145Z,62.00
2022-10-28T04:54:14.500Z,51.05
2022-10-28T04:59:16.855Z,47.38
2022-10-28T05:04:19.177Z,65.28
2022-10-28T05:09:21.626Z,50.50
2022-10-28T05:14:23.943Z,51.13
2022-10-28T05:19:26.296Z,45.90
2022-10-28T05:24:28.597Z,59.92
2022-10-28T05:29:33.307Z,65.03
2022-10-28T05:34:36.319Z,58.55
2022-10-28T05:39:38.626Z,70.32
2022-10-28T05:44:40.989Z,71.03
2022-10-28T05:49:43.264Z,55.00
2022-10-28T05:54:45.544Z,75.20
2022-10-28T05:59:47.815Z,55.95
2022-10-28T06:04:50.089Z,56.72
2022-10-28T06:09:52.977Z,51.20
2022-10-28T06:14:53.748Z,56.55
2022-10-28T06:19:56.034Z,51.78
2022-10-28T06:24:58.768Z,60.65
2022-10-28T06:30:01.092Z,51.30
2022-10-28T06:35:03.729Z,49.35
2022-10-28T06:40:06.945Z,60.65
2022-10-28T06:45:09.410Z,55.47
2022-10-28T06:50:13.285Z,56.90
2022-10-28T06:55:15.739Z,51.45
2022-10-28T07:00:18.374Z,55.20
2022-10-28T07:05:21.773Z,53.13
2022-10-28T07:10:24.189Z,51.10
2022-10-28T07:15:26.675Z,63.85
2022-10-28T07:20:32.090Z,53.17
2022-10-28T07:25:35.750Z,58.37
2022-10-28T07:30:38.172Z,55.35
2022-10-28T07:35:40.603Z,52.55
2022-10-28T07:40:42.884Z,56.75
2022-10-28T07:45:45.262Z,60.80
2022-10-28T07:50:47.624Z,59.88
2022-10-28T07:56:16.317Z,55.30
2022-10-28T08:01:20.491Z,50.83
2022-10-28T08:06:23.026Z,53.45
2022-10-28T08:11:25.502Z,51.05
2022-10-28T08:16:29.183Z,49.53
2022-10-28T08:21:31.736Z,48.20
2022-10-28T08:26:34.017Z,50.00
2022-10-28T08:31:36.357Z,48.67
2022-10-28T08:36:38.739Z,48.50
2022-10-28T08:41:41.017Z,47.83
2022-10-28T08:47:01.278Z,46.17
2022-10-28T08:52:06.159Z,46.90
2022-10-28T08:57:21.765Z,44.88
2022-10-28T09:02:25.854Z,49.30
2022-10-28T09:07:28.223Z,52.72
2022-10-28T09:12:44.167Z,44.92
2022-10-28T09:17:57.116Z,42.83
2022-10-28T09:23:01.128Z,43.17
2022-10-28T09:28:44.704Z,41.13
2022-10-28T09:33:59.515Z,40.15
2022-10-28T09:39:02.744Z,39.70
2022-10-28T09:44:45.783Z,38.08
2022-10-28T09:49:49.061Z,44.38
2022-10-28T09:54:53.384Z,41.60
2022-10-28T09:59:55.752Z,54.38
2022-10-28T10:04:59.473Z,42.65
2022-10-28T10:10:05.313Z,39.20
2022-10-28T10:15:09.031Z,36.90
2022-10-28T10:20:17.148Z,36.28
2022-10-28T10:25:19.400Z,29.40
2022-10-28T10:30:30.401Z,34.75
2022-10-28T10:35:34.838Z,29.38
2022-10-28T10:40:51.586Z,28.05
2022-10-28T10:46:01.219Z,27.55
2022-10-28T10:51:17.407Z,26.17
2022-10-28T10:56:27.745Z,24.95
2022-10-28T11:01:35.068Z,23.70
2022-10-28T11:06:39.926Z,23.70
2022-10-28T11:11:42.758Z,23.75
2022-10-28T11:16:53.429Z,22.60
2022-10-28T11:21:58.769Z,26.50
2022-10-28T11:27:07.181Z,26.85
2022-10-28T11:32:15.409Z,26.70
2022-10-28T11:37:30.643Z,29.38
2022-10-28T11:42:41.801Z,30.30
2022-10-28T11:47:52.125Z,31.63
2022-10-28T11:53:15.798Z,34.17
2022-10-28T11:58:24.117Z,30.45
2022-10-28T12:03:52.912Z,32.00
2022-10-28T12:09:19.833Z,32.17
2022-10-28T12:14:34.853Z,32.30
2022-10-28T12:19:43.975Z,31.52
2022-10-28T12:24:47.202Z,31.30
2022-10-28T12:29:52.676Z,30.75
2022-10-28T12:35:15.466Z,29.70
2022-10-28T12:40:21.368Z,27.20
2022-10-28T12:45:23.961Z,27.10
2022-10-28T12:50:37.151Z,34.78
2022-10-28T12:55:58.441Z,30.33
2022-10-28T13:01:07.911Z,27.70
2022-10-28T13:06:22.222Z,26.58
2022-10-28T13:11:39.470Z,27.02
2022-10-28T13:17:12.582Z,20.20
2022-10-28T13:22:23.772Z,27.67
2022-10-28T13:27:26.286Z,36.65
2022-10-28T13:32:38.807Z,33.92
2022-10-28T13:37:42.264Z,26.08
2022-10-28T13:42:48.776Z,26.90
2022-10-28T13:47:51.079Z,25.88
2022-10-28T13:53:25.575Z,31.02
2022-10-28T13:58:28.062Z,24.48
2022-10-28T14:03:30.727Z,26.98
2022-10-28T14:08:38.960Z,23.77
2022-10-28T14:13:49.170Z,24.15
2022-10-28T14:19:09.732Z,26.73
2022-10-28T14:24:43.359Z,37.78
2022-10-28T14:29:47.865Z,102.63
2022-10-28T14:34:50.322Z,34.30
2022-10-28T14:40:04.841Z,32.95
2022-10-28T14:45:22.430Z,26.20
2022-10-28T14:50:39.206Z,31.13
2022-10-28T14:55:46.713Z,25.58
2022-10-28T15:06:25.415Z,28.50
2022-10-28T15:11:28.103Z,34.40
2022-10-28T15:16:30.491Z,29.90
2022-10-28T15:21:32.782Z,32.42
2022-10-28T15:26:35.088Z,30.38
2022-10-28T15:32:07.382Z,33.72
2022-10-28T15:37:10.125Z,26.92
2022-10-28T15:42:41.753Z,32.20
2022-10-28T15:47:45.180Z,28.60
2022-10-28T15:52:50.259Z,26.05
2022-10-28T15:57:54.799Z,27.02
2022-10-28T16:03:02.031Z,27.40
2022-10-28T16:13:10.620Z,28.90
2022-10-28T16:18:15.156Z,26.67
2022-10-28T16:23:19.290Z,28.63
2022-10-28T16:28:25.275Z,27.20
2022-10-28T16:33:30.938Z,25.45
2022-10-28T16:38:33.657Z,27.90
2022-10-28T16:43:36.250Z,25.10
2022-10-28T16:48:38.761Z,26.25
2022-10-28T16:53:47.020Z,26.45
2022-10-28T16:58:49.490Z,23.38
2022-10-28T17:03:52.010Z,25.30
2022-10-28T17:09:03.019Z,23.05
2022-10-28T17:14:05.997Z,21.38
2022-10-28T17:19:08.427Z,20.90
2022-10-28T17:24:10.857Z,22.05
2022-10-28T17:29:13.194Z,23.05
2022-10-28T17:34:15.487Z,25.35
2022-10-28T17:39:21.952Z,32.00
2022-10-28T17:44:27.385Z,22.38
2022-10-28T17:49:30.850Z,23.77
2022-10-28T17:54:33.272Z,34.63
2022-10-28T17:59:35.657Z,23.92
2022-10-28T18:04:38.033Z,21.88
2022-10-28T18:09:42.171Z,27.42
2022-10-28T18:14:44.542Z,22.77
2022-10-28T18:19:46.911Z,22.30
2022-10-28T18:24:49.816Z,20.45
2022-10-28T18:29:52.207Z,22.00
2022-10-28T18:34:55.023Z,20.02
2022-10-28T18:39:57.373Z,25.45
2022-10-28T18:44:59.750Z,50.35
2022-10-28T18:50:02.071Z,24.90
2022-10-28T18:55:05.841Z,27.13
2022-10-28T19:00:24.194Z,23.30
2022-10-28T19:05:26.575Z,21.75
2022-10-28T19:10:28.964Z,24.27
2022-10-28T19:15:31.650Z,30.63
2022-10-28T19:20:33.973Z,24.63
2022-10-28T19:25:36.339Z,21.83
2022-10-28T19:30:38.777Z,22.48
2022-10-28T19:35:41.088Z,22.38
2022-10-28T19:40:43.354Z,23.40
2022-10-28T19:45:45.619Z,24.95
2022-10-28T19:50:50.808Z,27.00
2022-10-28T19:55:57.733Z,23.25
2022-10-28T20:01:02.164Z,16.95
2022-10-28T20:06:05.842Z,20.73
2022-10-28T20:11:10.164Z,19.27
2022-10-28T20:16:14.212Z,20.50
2022-10-28T20:21:19.287Z,20.38
2022-10-28T20:26:23.542Z,21.25
2022-10-28T20:31:28.628Z,23.45
2022-10-28T20:36:44.226Z,25.05
2022-10-28T20:41:47.837Z,22.17
2022-10-28T20:46:50.503Z,22.85
2022-10-28T20:51:52.807Z,23.10
2022-10-28T20:56:55.115Z,21.48
2022-10-28T21:01:57.448Z,22.00
2022-10-28T21:06:59.899Z,22.27
2022-10-28T21:12:02.224Z,22.30
2022-10-28T21:17:04.516Z,21.77
2022-10-28T21:22:06.933Z,25.55
2022-10-28T21:27:09.269Z,28.05
2022-10-28T21:32:11.752Z,24.13
2022-10-28T21:37:14.061Z,27.27
2022-10-28T21:42:16.405Z,28.20
2022-10-28T21:52:21.005Z,24.40
2022-10-28T21:57:29.189Z,29.38
2022-10-28T22:02:31.808Z,29.85
2022-10-28T22:07:34.238Z,29.00
2022-10-28T22:12:36.517Z,25.65
2022-10-28T22:17:39.988Z,27.83
2022-10-28T22:22:42.430Z,26.27
2022-10-28T22:27:45.184Z,27.30
2022-10-28T22:32:47.752Z,23.70
2022-10-28T22:37:50.663Z,25.35
2022-10-28T22:42:53.013Z,25.25
2022-10-28T22:47:55.685Z,26.38
2022-10-28T22:52:58.159Z,30.25
2022-10-28T22:58:00.496Z,26.92
2022-10-28T23:03:03.173Z,27.92
2022-10-28T23:08:05.774Z,24.67
2022-10-28T23:13:09.135Z,25.35
2022-10-28T23:18:11.518Z,21.10
2022-10-28T23:23:14.181Z,22.98
2022-10-28T23:28:16.530Z,20.65
2022-10-28T23:33:19.201Z,19.02
2022-10-28T23:38:22.079Z,19.35
2022-10-28T23:43:24.962Z,19.52
2022-10-28T23:48:28.411Z,18.70
2022-10-28T23:53:31.347Z,20.35
2022-10-28T23:58:33.957Z,19.45
